Time;durP1;ratioP1;P1;durP2;ratioP2;P2;SDS_P1;SDS_P2;PMS_P1;PMS_P2;Temp;Humidity;BMP_temperature;BMP_pressure;BME280_temperature;BME280_humidity;BME280_pressure;Samples;Min_cycle;Max_cycle;Signal;HPM_P1;HPM_P2
2022/12/26 00:01:02;;;;;;;6.78;2.47;;;11.80;87.00;;;;;;4958781;29;20035;-78
2022/12/26 00:03:29;;;;;;;4.45;2.25;;;11.80;87.10;;;;;;4940780;29;20035;-78
2022/12/26 00:05:54;;;;;;;5.72;2.45;;;11.80;87.10;;;;;;4955623;29;20066;-78
2022/12/26 00:08:20;;;;;;;5.57;2.35;;;11.80;87.10;;;;;;4951848;29;20024;-78
2022/12/26 00:10:46;;;;;;;5.20;1.75;;;11.80;87.10;;;;;;4955217;29;20042;-78
2022/12/26 00:13:11;;;;;;;4.75;2.13;;;11.80;87.00;;;;;;4959923;29;20031;-78
2022/12/26 00:15:41;;;;;;;5.57;1.98;;;11.90;86.90;;;;;;4957766;29;20395;-79
2022/12/26 00:18:06;;;;;;;5.40;1.77;;;11.90;86.80;;;;;;4946653;29;20028;-78
2022/12/26 00:20:32;;;;;;;5.43;2.05;;;11.90;86.80;;;;;;4953669;29;20035;-78
2022/12/26 00:22:59;;;;;;;5.15;1.90;;;11.90;86.70;;;;;;4957452;29;20094;-78
2022/12/26 00:25:25;;;;;;;3.17;1.90;;;11.90;86.80;;;;;;4953013;28;20024;-78
2022/12/26 00:27:51;;;;;;;2.67;1.80;;;11.90;86.80;;;;;;4957769;29;20050;-79
2022/12/26 00:30:16;;;;;;;8.23;2.10;;;11.90;86.80;;;;;;4951688;29;20554;-78
2022/12/26 00:32:42;;;;;;;3.53;1.90;;;11.90;86.70;;;;;;4953635;29;20040;-78
2022/12/26 00:35:08;;;;;;;3.80;1.90;;;12.00;86.60;;;;;;4959365;29;20534;-78
2022/12/26 00:37:34;;;;;;;2.05;1.80;;;12.00;86.60;;;;;;4953547;29;20111;-79
2022/12/26 00:39:59;;;;;;;4.35;1.80;;;12.00;86.40;;;;;;4952024;29;20031;-79
2022/12/26 00:42:25;;;;;;;5.63;2.50;;;12.00;86.60;;;;;;4957926;29;20467;-78
2022/12/26 00:44:51;;;;;;;5.38;2.10;;;12.00;86.60;;;;;;4956868;29;20066;-78
2022/12/26 00:47:16;;;;;;;3.78;1.80;;;12.10;86.50;;;;;;4958302;29;20032;-78
2022/12/26 00:49:42;;;;;;;3.63;2.25;;;12.10;86.30;;;;;;4950024;29;20533;-79
2022/12/26 00:52:08;;;;;;;8.50;2.50;;;12.10;86.50;;;;;;4957686;29;20043;-77
2022/12/26 00:54:33;;;;;;;9.35;2.33;;;12.10;86.50;;;;;;4959142;29;20065;-79
2022/12/26 00:56:59;;;;;;;3.17;2.00;;;12.20;86.30;;;;;;4953463;29;20058;-78
2022/12/26 00:59:25;;;;;;;4.90;2.40;;;12.10;86.40;;;;;;4957660;29;20019;-78
2022/12/26 01:01:51;;;;;;;6.70;2.25;;;12.10;86.60;;;;;;4948164;29;20092;-78
2022/12/26 01:04:16;;;;;;;5.57;2.17;;;12.10;86.60;;;;;;4946997;29;20023;-79
2022/12/26 01:06:42;;;;;;;6.82;2.20;;;12.10;86.60;;;;;;4958487;29;20031;-78
2022/12/26 01:09:13;;;;;;;3.95;1.70;;;12.00;86.70;;;;;;4952324;29;20024;-79
2022/12/26 01:11:39;;;;;;;7.07;1.98;;;12.00;86.80;;;;;;4957722;29;20027;-78
2022/12/26 01:14:12;;;;;;;6.65;2.25;;;12.00;86.80;;;;;;4954491;29;20027;-78
2022/12/26 01:16:39;;;;;;;5.22;2.50;;;12.10;86.70;;;;;;4953388;29;20089;-78
2022/12/26 01:19:06;;;;;;;6.28;2.45;;;12.10;86.50;;;;;;4951769;29;20023;-78
2022/12/26 01:21:31;;;;;;;6.32;1.90;;;12.10;86.40;;;;;;4957362;29;20498;-78
2022/12/26 01:23:57;;;;;;;6.15;1.73;;;12.10;86.40;;;;;;4957021;29;20027;-78
2022/12/26 01:26:23;;;;;;;6.38;2.17;;;12.10;86.40;;;;;;4943941;29;20032;-78
2022/12/26 01:28:50;;;;;;;6.03;2.45;;;12.20;86.50;;;;;;4953960;29;20031;-78
2022/12/26 01:31:17;;;;;;;3.72;2.10;;;12.20;86.40;;;;;;4946984;29;20058;-78
2022/12/26 01:33:42;;;;;;;8.43;2.08;;;12.20;86.40;;;;;;4955310;29;20039;-79
2022/12/26 01:36:08;;;;;;;4.72;1.67;;;12.20;86.40;;;;;;4956225;29;20028;-79
2022/12/26 01:38:34;;;;;;;14.52;2.47;;;12.20;86.40;;;;;;4953626;28;20027;-79
2022/12/26 01:41:15;;;;;;;4.80;2.42;;;12.20;86.50;;;;;;4958067;29;20059;-78
2022/12/26 01:44:02;;;;;;;7.25;2.00;;;12.20;86.40;;;;;;4958071;29;20027;-78
2022/12/26 01:46:53;;;;;;;7.00;2.03;;;12.20;86.40;;;;;;4958178;29;20043;-78
2022/12/26 01:49:45;;;;;;;8.13;2.35;;;12.20;86.50;;;;;;4941624;29;20054;-78
2022/12/26 01:52:34;;;;;;;6.68;1.70;;;12.20;86.50;;;;;;4950336;29;20067;-78
2022/12/26 01:55:09;;;;;;;9.30;2.17;;;12.20;86.70;;;;;;4957432;29;20517;-79
2022/12/26 01:57:41;;;;;;;9.35;2.15;;;12.20;86.40;;;;;;4954715;29;20028;-79
2022/12/26 02:00:07;;;;;;;6.28;2.83;;;12.20;86.40;;;;;;4952375;29;20034;-78
2022/12/26 02:05:32;;;;;;;4.20;1.27;;;12.20;86.30;;;;;;4946747;29;20035;-78
2022/12/26 02:05:34;;;;;;;5.38;1.75;;;12.20;86.50;;;;;;4957452;29;20118;-78
2022/12/26 02:08:11;;;;;;;1.50;1.23;;;12.20;86.70;;;;;;4943899;29;20114;-78
2022/12/26 02:10:51;;;;;;;4.03;1.58;;;12.10;86.50;;;;;;4944276;29;20178;-78
2022/12/26 02:13:18;;;;;;;4.50;1.90;;;12.00;86.90;;;;;;4957328;28;20398;-78
2022/12/26 02:15:44;;;;;;;5.07;1.60;;;12.00;87.10;;;;;;4949080;29;20030;-78
2022/12/26 02:18:10;;;;;;;4.53;1.40;;;12.00;87.20;;;;;;4957535;29;20130;-78
2022/12/26 02:20:56;;;;;;;3.35;1.73;;;12.00;87.20;;;;;;4952636;29;20061;-78
2022/12/26 02:23:36;;;;;;;7.00;1.90;;;12.00;87.30;;;;;;4947910;29;20055;-78
2022/12/26 02:26:20;;;;;;;10.40;1.80;;;12.00;87.30;;;;;;4946449;29;20032;-78
2022/12/26 02:29:07;;;;;;;6.40;2.13;;;12.00;87.20;;;;;;4956649;29;20032;-78
2022/12/26 02:31:40;;;;;;;4.60;1.48;;;12.00;87.20;;;;;;4956775;29;20093;-78
2022/12/26 02:34:22;;;;;;;5.70;1.70;;;12.00;87.20;;;;;;4950985;29;20057;-78
2022/12/26 02:37:23;;;;;;;7.63;1.75;;;12.00;87.20;;;;;;4957407;29;20048;-79
2022/12/26 02:39:58;;;;;;;;;;;12.00;87.10;;;;;;4949249;29;20047;-78
2022/12/26 02:42:35;;;;;;;3.13;1.45;;;12.10;87.10;;;;;;4955951;29;19906;-78
2022/12/26 02:48:02;;;;;;;6.93;1.52;;;12.20;87.00;;;;;;4955252;29;20042;-78
2022/12/26 03:14:44;;;;;;;6.10;1.50;;;12.20;87.20;;;;;;4949131;29;20045;-78
2022/12/26 03:17:20;;;;;;;5.35;1.33;;;12.20;87.10;;;;;;4955015;29;20031;-78
2022/12/26 03:20:00;;;;;;;7.95;2.35;;;12.20;87.10;;;;;;4956212;29;20030;-78
2022/12/26 03:22:37;;;;;;;;;;;12.20;87.00;;;;;;4946466;29;20039;-78
2022/12/26 03:27:54;;;;;;;4.85;1.30;;;12.20;86.80;;;;;;4952325;29;20132;-79
2022/12/26 03:33:03;;;;;;;2.80;1.33;;;12.20;87.00;;;;;;4950995;29;20172;-78
2022/12/26 03:35:33;;;;;;;4.90;1.77;;;12.20;87.00;;;;;;4954973;29;20190;-79
2022/12/26 03:38:07;;;;;;;3.92;1.42;;;12.20;87.00;;;;;;4947069;29;20031;-79
2022/12/26 04:19:36;;;;;;;4.63;1.60;;;12.20;86.90;;;;;;4959102;29;20053;-78
2022/12/26 04:44:52;;;;;;;4.28;1.50;;;12.10;86.80;;;;;;4959384;29;20071;-78
2022/12/26 04:47:17;;;;;;;5.30;1.30;;;12.00;86.70;;;;;;4950861;29;20023;-78
2022/12/26 04:52:53;;;;;;;6.10;1.65;;;12.00;86.70;;;;;;4958128;29;20518;-78
2022/12/26 04:55:15;;;;;;;4.97;1.48;;;12.00;86.80;;;;;;4958424;29;20027;-78
2022/12/26 04:57:40;;;;;;;6.22;1.60;;;11.90;86.70;;;;;;4956655;29;20051;-78
2022/12/26 05:00:06;;;;;;;2.75;1.40;;;11.90;86.70;;;;;;4957509;29;20687;-78
2022/12/26 05:11:10;;;;;;;3.75;1.20;;;11.90;86.30;;;;;;4948383;29;20042;-78
2022/12/26 05:13:35;;;;;;;9.68;1.85;;;11.90;86.50;;;;;;4947350;28;20032;-78
2022/12/26 05:29:43;;;;;;;5.55;1.85;;;11.80;86.60;;;;;;4957824;29;20548;-78
2022/12/26 05:32:08;;;;;;;4.22;1.55;;;11.70;86.50;;;;;;4941565;29;20772;-78
2022/12/26 05:34:34;;;;;;;4.10;1.60;;;11.80;86.50;;;;;;4954983;29;20023;-79
2022/12/26 05:37:00;;;;;;;4.80;1.33;;;11.70;86.30;;;;;;4958734;29;20031;-78
2022/12/26 05:39:25;;;;;;;3.42;1.30;;;11.70;86.70;;;;;;4957085;29;20027;-79
2022/12/26 05:41:51;;;;;;;2.22;1.10;;;11.80;86.50;;;;;;4945777;29;20400;-78
2022/12/26 05:44:16;;;;;;;6.78;1.58;;;11.80;86.50;;;;;;4953350;29;20027;-79
2022/12/26 05:46:42;;;;;;;2.65;1.40;;;11.80;86.60;;;;;;4955908;29;20024;-78
2022/12/26 05:49:09;;;;;;;3.72;1.10;;;11.80;86.30;;;;;;4954518;29;20143;-78
2022/12/26 05:51:35;;;;;;;5.95;1.15;;;11.80;86.20;;;;;;4954277;29;20097;-78
2022/12/26 05:54:01;;;;;;;9.15;1.13;;;11.80;86.10;;;;;;4958067;29;20162;-78
2022/12/26 05:56:27;;;;;;;3.20;1.50;;;11.80;85.90;;;;;;4956261;29;20093;-78
2022/12/26 05:58:58;;;;;;;5.35;1.38;;;11.70;86.20;;;;;;4951884;29;20031;-78
2022/12/26 06:01:25;;;;;;;4.20;1.25;;;11.80;86.20;;;;;;4954955;29;20063;-78
2022/12/26 06:03:53;;;;;;;8.27;1.20;;;11.80;86.20;;;;;;4951850;28;20027;-78
2022/12/26 06:06:20;;;;;;;4.82;1.15;;;11.80;86.00;;;;;;4950975;29;20035;-79
2022/12/26 06:08:51;;;;;;;4.32;1.60;;;11.80;86.10;;;;;;4956315;29;20046;-79
2022/12/26 06:11:18;;;;;;;7.47;1.48;;;11.80;86.20;;;;;;4949863;29;20078;-78
2022/12/26 06:13:44;;;;;;;9.60;1.35;;;11.80;86.10;;;;;;4956173;29;20065;-78
2022/12/26 06:16:12;;;;;;;7.25;1.08;;;11.70;86.20;;;;;;4949962;29;20143;-78
2022/12/26 06:18:39;;;;;;;3.75;1.40;;;11.80;86.10;;;;;;4952355;29;20082;-79
2022/12/26 06:21:07;;;;;;;9.48;1.13;;;11.80;85.90;;;;;;4956021;28;20059;-78
2022/12/26 06:23:34;;;;;;;8.00;1.95;;;11.80;86.00;;;;;;4951410;28;20530;-79
2022/12/26 06:25:59;;;;;;;4.40;1.33;;;11.80;86.00;;;;;;4956281;29;20172;-79
2022/12/26 06:28:28;;;;;;;4.95;1.10;;;11.80;86.00;;;;;;4957797;29;20554;-78
2022/12/26 06:30:53;;;;;;;3.00;1.10;;;11.80;85.90;;;;;;4954128;29;20051;-79
2022/12/26 06:33:20;;;;;;;1.98;1.10;;;11.80;85.80;;;;;;4957403;29;20046;-79
2022/12/26 06:35:45;;;;;;;5.38;1.17;;;11.80;85.90;;;;;;4958166;29;20039;-79
2022/12/26 06:38:11;;;;;;;2.88;1.00;;;11.80;86.00;;;;;;4948300;29;20015;-79
2022/12/26 06:40:39;;;;;;;3.05;1.10;;;11.80;85.80;;;;;;4957895;29;20494;-79
2022/12/26 06:43:05;;;;;;;2.58;1.05;;;11.80;85.90;;;;;;4953943;29;20530;-78
2022/12/26 06:45:34;;;;;;;3.45;1.02;;;11.80;86.00;;;;;;4953205;29;20081;-78
2022/12/26 06:47:59;;;;;;;1.80;0.90;;;11.80;85.80;;;;;;4952284;29;20050;-78
2022/12/26 06:50:25;;;;;;;2.67;1.40;;;11.80;85.70;;;;;;4957115;29;20027;-78
2022/12/26 06:52:51;;;;;;;7.07;1.25;;;11.80;85.70;;;;;;4954325;29;20027;-78
2022/12/26 06:55:17;;;;;;;4.05;1.17;;;11.80;85.70;;;;;;4956432;29;20023;-79
2022/12/26 06:57:42;;;;;;;7.35;1.15;;;11.80;85.50;;;;;;4951008;29;20027;-79
2022/12/26 07:00:09;;;;;;;4.72;0.95;;;11.80;85.70;;;;;;4952872;29;20276;-78
2022/12/26 07:02:37;;;;;;;3.50;1.20;;;11.80;85.80;;;;;;4957564;29;20033;-79
2022/12/26 07:05:03;;;;;;;5.78;1.33;;;11.80;85.70;;;;;;4955899;29;20035;-79
2022/12/26 07:07:28;;;;;;;6.50;1.38;;;11.80;85.80;;;;;;4948957;29;20749;-79
2022/12/26 07:09:55;;;;;;;8.55;2.03;;;11.70;85.70;;;;;;4949991;29;20122;-79
2022/12/26 07:12:20;;;;;;;5.38;1.85;;;11.80;85.80;;;;;;4955660;29;20491;-79
2022/12/26 07:14:47;;;;;;;9.70;2.05;;;11.80;85.80;;;;;;4952731;29;20046;-79
2022/12/26 07:17:13;;;;;;;5.53;1.67;;;11.70;85.80;;;;;;4947935;29;20019;-78
2022/12/26 07:19:40;;;;;;;7.85;2.00;;;11.70;85.90;;;;;;4957304;29;20042;-79
2022/12/26 07:22:06;;;;;;;4.45;2.05;;;11.70;85.80;;;;;;4955859;29;20047;-79
2022/12/26 07:24:32;;;;;;;10.32;1.90;;;11.80;85.90;;;;;;4954091;29;20035;-79
2022/12/26 07:26:57;;;;;;;4.97;1.70;;;11.80;85.80;;;;;;4950289;29;20031;-79
2022/12/26 07:29:23;;;;;;;7.30;2.10;;;11.80;85.90;;;;;;4952606;29;20090;-78
2022/12/26 07:31:49;;;;;;;6.32;2.15;;;11.80;85.90;;;;;;4957433;29;20130;-78
2022/12/26 07:34:14;;;;;;;5.70;1.60;;;11.80;85.90;;;;;;4953193;29;20098;-79
2022/12/26 07:36:42;;;;;;;4.43;1.50;;;11.80;85.70;;;;;;4958952;28;20023;-79
2022/12/26 07:39:08;;;;;;;8.43;1.75;;;11.80;85.90;;;;;;4953184;29;20036;-79
2022/12/26 07:44:18;;;;;;;4.22;1.20;;;11.80;86.10;;;;;;4953885;29;20109;-79
2022/12/26 07:46:45;;;;;;;7.60;1.42;;;11.80;86.20;;;;;;4958861;29;20030;-78
2022/12/26 07:49:11;;;;;;;8.20;1.10;;;11.80;86.20;;;;;;4954997;29;20038;-78
2022/12/26 07:51:37;;;;;;;4.63;1.30;;;11.80;86.20;;;;;;4956136;29;20101;-78
2022/12/26 07:54:03;;;;;;;7.88;1.50;;;11.80;86.10;;;;;;4960567;29;20035;-78
2022/12/26 07:56:30;;;;;;;4.63;1.20;;;11.80;86.10;;;;;;4957063;29;20499;-78
2022/12/26 07:59:06;;;;;;;5.90;1.55;;;11.80;86.00;;;;;;4959959;29;20023;-78
2022/12/26 08:01:32;;;;;;;5.20;1.67;;;11.90;86.10;;;;;;4960470;29;20031;-78
2022/12/26 08:03:57;;;;;;;5.97;1.35;;;11.80;86.10;;;;;;4956944;29;20046;-78
2022/12/26 08:06:23;;;;;;;5.88;1.38;;;11.90;86.10;;;;;;4952130;29;20034;-78
2022/12/26 08:08:49;;;;;;;15.30;2.33;;;11.90;86.10;;;;;;4959814;29;20063;-78
2022/12/26 08:11:19;;;;;;;7.07;1.27;;;11.90;86.00;;;;;;4957498;29;20035;-78
2022/12/26 08:13:45;;;;;;;6.47;1.60;;;11.90;85.90;;;;;;4957192;29;20123;-78
2022/12/26 08:16:13;;;;;;;1.42;0.82;;;11.80;86.10;;;;;;4958424;29;20551;-78
2022/12/26 08:18:39;;;;;;;2.88;0.77;;;11.80;85.60;;;;;;4948125;29;20035;-78
2022/12/26 08:21:05;;;;;;;6.00;1.55;;;11.80;85.60;;;;;;4959896;29;20031;-78
2022/12/26 08:23:30;;;;;;;6.90;1.20;;;11.80;85.60;;;;;;4954656;29;20236;-78
2022/12/26 08:25:56;;;;;;;5.35;1.08;;;11.80;85.60;;;;;;4959266;29;20031;-78
2022/12/26 08:28:22;;;;;;;4.78;1.00;;;11.80;85.60;;;;;;4959818;29;20063;-78
2022/12/26 08:30:48;;;;;;;7.88;1.33;;;11.80;85.50;;;;;;4957926;29;20055;-78
2022/12/26 08:33:15;;;;;;;4.43;1.08;;;11.80;85.30;;;;;;4959547;29;20027;-78
2022/12/26 08:35:40;;;;;;;5.53;1.33;;;11.80;85.50;;;;;;4958326;29;20051;-78
2022/12/26 08:38:06;;;;;;;6.85;1.90;;;11.70;85.30;;;;;;4959024;29;20023;-78
2022/12/26 08:40:32;;;;;;;3.95;1.30;;;11.70;85.00;;;;;;4957840;29;20028;-78
2022/12/26 08:42:58;;;;;;;4.05;1.13;;;11.70;85.10;;;;;;4957790;29;20039;-78
2022/12/26 08:45:24;;;;;;;4.15;1.50;;;11.70;85.10;;;;;;4947197;29;20027;-78
2022/12/26 08:47:50;;;;;;;4.60;1.10;;;11.70;85.00;;;;;;4959058;28;20027;-78
2022/12/26 08:50:16;;;;;;;6.07;1.20;;;11.70;85.10;;;;;;4953969;29;20521;-78
2022/12/26 08:52:42;;;;;;;5.40;1.35;;;11.60;84.70;;;;;;4959255;29;20055;-79
2022/12/26 08:55:08;;;;;;;4.30;1.20;;;11.60;84.80;;;;;;4946206;29;20023;-78
2022/12/26 08:57:34;;;;;;;8.20;1.42;;;11.60;85.00;;;;;;4959260;29;20030;-78
2022/12/26 09:00:00;;;;;;;2.08;0.90;;;11.60;84.90;;;;;;4958647;29;20406;-78
2022/12/26 09:02:25;;;;;;;3.70;1.10;;;11.50;85.00;;;;;;4956248;29;20127;-78
2022/12/26 09:04:51;;;;;;;3.38;1.40;;;11.50;84.90;;;;;;4952989;29;20037;-78
2022/12/26 09:07:17;;;;;;;3.75;1.30;;;11.50;85.10;;;;;;4958993;29;20106;-78
2022/12/26 09:09:43;;;;;;;2.80;1.10;;;11.50;85.00;;;;;;4957174;29;20085;-78
2022/12/26 09:12:09;;;;;;;5.45;1.08;;;11.50;84.90;;;;;;4956618;29;20038;-78
2022/12/26 09:14:35;;;;;;;2.55;1.55;;;11.50;84.70;;;;;;4950049;29;20019;-78
2022/12/26 09:17:01;;;;;;;9.45;1.73;;;11.50;84.90;;;;;;4958767;29;20027;-78
2022/12/26 09:19:31;;;;;;;3.45;1.50;;;11.50;84.90;;;;;;4956246;29;20019;-78
2022/12/26 09:24:41;;;;;;;6.85;1.73;;;11.50;84.80;;;;;;4953683;29;20517;-78
2022/12/26 09:27:07;;;;;;;9.25;1.75;;;11.60;85.10;;;;;;4956438;29;20031;-78
2022/12/26 09:29:33;;;;;;;6.60;1.80;;;11.60;84.90;;;;;;4955684;29;20065;-78
2022/12/26 09:31:59;;;;;;;11.23;1.45;;;11.70;84.80;;;;;;4958378;29;20506;-79
2022/12/26 09:34:24;;;;;;;6.38;1.67;;;11.70;84.50;;;;;;4944679;29;20059;-78
2022/12/26 09:36:50;;;;;;;7.47;1.40;;;11.80;84.50;;;;;;4958482;29;20444;-79
2022/12/26 09:39:16;;;;;;;1.40;1.23;;;11.80;84.40;;;;;;4951830;29;20031;-78
2022/12/26 09:41:56;;;;;;;11.23;1.73;;;11.80;84.50;;;;;;4957235;29;20124;-78
2022/12/26 09:44:36;;;;;;;2.03;1.35;;;11.80;84.50;;;;;;4951431;29;20031;-78
2022/12/26 09:47:23;;;;;;;5.63;1.57;;;11.90;84.40;;;;;;4958139;29;20027;-78
2022/12/26 09:50:10;;;;;;;4.72;1.40;;;11.90;84.00;;;;;;4954848;28;20287;-78
2022/12/26 09:52:53;;;;;;;5.00;1.83;;;11.90;84.00;;;;;;4950751;29;20170;-78
2022/12/26 09:55:18;;;;;;;5.28;1.48;;;12.00;83.80;;;;;;4957843;29;20446;-78
2022/12/26 09:57:49;;;;;;;3.10;1.20;;;12.00;83.90;;;;;;4958025;29;20103;-78
2022/12/26 10:00:19;;;;;;;;;;;12.00;83.60;;;;;;4955179;28;20028;-78
2022/12/26 10:02:52;;;;;;;10.70;1.33;;;12.00;83.60;;;;;;4958052;28;19910;-78
2022/12/26 10:05:24;;;;;;;5.53;1.50;;;12.10;83.30;;;;;;4956669;29;20051;-78
2022/12/26 10:08:12;;;;;;;7.88;1.50;;;12.10;83.30;;;;;;4957721;29;20031;-79
2022/12/26 10:10:50;;;;;;;3.65;1.20;;;12.20;83.10;;;;;;4956671;29;20062;-78
2022/12/26 10:13:21;;;;;;;5.30;1.58;;;12.10;83.20;;;;;;4949229;28;20411;-78
2022/12/26 10:16:07;;;;;;;6.47;1.35;;;12.20;83.10;;;;;;4956384;29;20022;-78
2022/12/26 10:18:45;;;;;;;7.53;1.60;;;12.20;83.10;;;;;;4951344;29;20039;-78
2022/12/26 10:21:26;;;;;;;4.15;1.23;;;12.30;83.10;;;;;;4951732;29;20063;-78
2022/12/26 10:24:09;;;;;;;7.90;1.50;;;12.50;82.80;;;;;;4954183;29;20035;-78
2022/12/26 10:26:40;;;;;;;5.05;1.70;;;12.70;82.60;;;;;;4944722;29;20472;-78
2022/12/26 10:29:08;;;;;;;;;;;12.80;82.40;;;;;;4957960;29;20031;-78
2022/12/26 10:31:59;;;;;;;6.65;1.67;;;12.80;82.30;;;;;;4957000;28;20401;-78
2022/12/26 10:34:29;;;;;;;;;;;12.80;82.10;;;;;;4953577;29;20031;-79
2022/12/26 10:36:55;;;;;;;9.63;1.90;;;12.80;82.20;;;;;;4951131;28;19966;-79
2022/12/26 10:39:37;;;;;;;8.85;2.13;;;12.90;81.70;;;;;;4957425;29;20027;-78
2022/12/26 10:42:23;;;;;;;6.63;1.58;;;13.00;81.90;;;;;;4946653;28;20028;-78
2022/12/26 10:44:49;;;;;;;6.13;1.83;;;13.10;81.30;;;;;;4957084;29;20616;-78
2022/12/26 10:47:23;;;;;;;8.25;1.58;;;13.00;81.00;;;;;;4955027;29;20138;-78
2022/12/26 10:49:49;;;;;;;6.93;1.85;;;13.10;81.40;;;;;;4954788;29;20464;-78
2022/12/26 10:52:17;;;;;;;6.57;1.33;;;13.20;80.90;;;;;;4945786;29;20063;-78
2022/12/26 10:54:50;;;;;;;4.25;1.40;;;13.30;80.40;;;;;;4951927;29;20020;-78
2022/12/26 10:57:16;;;;;;;9.18;1.50;;;13.30;79.70;;;;;;4957080;29;20027;-78
2022/12/26 10:59:46;;;;;;;6.60;1.05;;;13.30;79.60;;;;;;4945991;29;20075;-78
2022/12/26 11:02:23;;;;;;;5.60;1.20;;;13.30;78.90;;;;;;4949197;29;20055;-78
2022/12/26 11:05:00;;;;;;;6.82;1.85;;;13.30;79.20;;;;;;4952078;29;20027;-78
2022/12/26 11:07:29;;;;;;;3.35;1.10;;;13.20;78.50;;;;;;4952406;29;20058;-79
2022/12/26 11:09:57;;;;;;;8.38;1.25;;;13.10;78.80;;;;;;4951323;28;20028;-79
2022/12/26 11:12:49;;;;;;;9.60;1.60;;;13.10;78.80;;;;;;4960875;29;20022;-79
2022/12/26 11:15:17;;;;;;;4.82;1.73;;;13.20;78.90;;;;;;4949133;29;20130;-78
2022/12/26 11:17:45;;;;;;;5.13;1.55;;;13.20;79.30;;;;;;4960770;29;20027;-78
2022/12/26 11:20:14;;;;;;;7.05;1.85;;;13.20;79.30;;;;;;4948256;29;20491;-78
2022/12/26 11:22:44;;;;;;;5.50;1.60;;;13.20;78.80;;;;;;4947673;29;20024;-79
2022/12/26 11:25:11;;;;;;;7.97;1.95;;;13.30;78.10;;;;;;4954144;29;20232;-78
2022/12/26 11:27:43;;;;;;;4.28;1.40;;;13.30;77.60;;;;;;4955367;29;20028;-79
2022/12/26 11:30:18;;;;;;;11.57;1.48;;;13.30;77.60;;;;;;4958301;29;20111;-78
2022/12/26 11:32:47;;;;;;;9.52;1.42;;;13.20;77.70;;;;;;4953691;29;20092;-78
2022/12/26 11:35:22;;;;;;;1.80;0.88;;;13.00;76.70;;;;;;4952287;29;20027;-78
2022/12/26 11:37:56;;;;;;;8.50;1.30;;;12.90;77.60;;;;;;4960469;29;20086;-79
2022/12/26 11:40:26;;;;;;;6.30;1.50;;;12.80;78.20;;;;;;4960493;29;20027;-79
2022/12/26 11:42:57;;;;;;;6.03;1.70;;;12.70;77.90;;;;;;4955484;29;20024;-78
2022/12/26 11:45:26;;;;;;;4.55;1.10;;;12.80;77.30;;;;;;4948277;29;20114;-79
2022/12/26 11:47:54;;;;;;;5.30;1.25;;;12.70;77.20;;;;;;4958965;29;20099;-78
2022/12/26 11:50:24;;;;;;;3.13;1.05;;;12.70;76.30;;;;;;4945123;29;20134;-78
2022/12/26 11:53:02;;;;;;;3.97;1.30;;;12.70;77.30;;;;;;4953282;29;20873;-78
2022/12/26 11:55:33;;;;;;;3.90;1.25;;;12.80;76.20;;;;;;4960095;29;20097;-78
2022/12/26 11:58:07;;;;;;;5.65;1.40;;;12.90;76.10;;;;;;4959397;29;20024;-78
2022/12/26 12:01:01;;;;;;;3.95;1.10;;;13.20;76.30;;;;;;4956848;28;20065;-78
2022/12/26 12:03:53;;;;;;;5.88;1.27;;;13.30;76.50;;;;;;4954967;29;20042;-78
2022/12/26 12:06:48;;;;;;;5.72;1.00;;;13.40;76.30;;;;;;4956661;29;20055;-78
2022/12/26 12:09:46;;;;;;;4.10;1.10;;;13.40;75.80;;;;;;4950497;29;20023;-78
2022/12/26 12:12:52;;;;;;;3.05;1.13;;;13.10;72.20;;;;;;4959780;28;20038;-78
2022/12/26 12:15:47;;;;;;;5.80;1.40;;;13.00;74.20;;;;;;4953848;29;20122;-78
2022/12/26 12:18:28;;;;;;;6.47;1.50;;;12.90;74.50;;;;;;4952336;29;20038;-78
2022/12/26 12:20:53;;;;;;;5.38;1.55;;;12.80;75.50;;;;;;4958427;29;20119;-78
2022/12/26 12:23:54;;;;;;;4.13;1.13;;;12.50;76.20;;;;;;4959189;28;20055;-78
2022/12/26 12:26:29;;;;;;;2.33;1.00;;;12.30;76.30;;;;;;4943101;28;20462;-78
2022/12/26 12:29:30;;;;;;;8.07;1.30;;;12.30;76.90;;;;;;4948152;29;20407;-78
2022/12/26 12:32:21;;;;;;;5.95;1.10;;;12.20;75.90;;;;;;4949193;29;20082;-78
2022/12/26 12:35:01;;;;;;;3.42;0.80;;;12.00;76.60;;;;;;4958066;29;20023;-78
2022/12/26 12:37:36;;;;;;;2.65;1.15;;;12.00;76.30;;;;;;4956214;29;20495;-79
2022/12/26 12:40:18;;;;;;;6.28;2.05;;;12.00;77.10;;;;;;4957856;29;20046;-78
2022/12/26 12:42:50;;;;;;;5.35;1.52;;;12.00;77.30;;;;;;4959332;29;20551;-78
2022/12/26 12:45:31;;;;;;;4.20;1.52;;;12.10;76.70;;;;;;4953843;29;20047;-78
2022/12/26 12:48:10;;;;;;;5.65;1.48;;;12.20;76.70;;;;;;4957853;29;20737;-78
2022/12/26 12:50:52;;;;;;;7.40;2.00;;;12.20;77.10;;;;;;4959289;29;20032;-78
2022/12/26 12:53:18;;;;;;;3.97;1.83;;;12.30;76.80;;;;;;4957140;29;20980;-79
2022/12/26 12:55:46;;;;;;;7.82;1.83;;;12.30;76.70;;;;;;4959132;29;20152;-78
2022/12/26 12:58:23;;;;;;;7.70;1.70;;;12.40;76.40;;;;;;4958951;29;20031;-78
2022/12/26 13:01:02;;;;;;;7.47;1.60;;;12.50;76.10;;;;;;4947886;29;20509;-78
2022/12/26 13:03:40;;;;;;;6.90;1.98;;;12.50;75.90;;;;;;4958892;29;20035;-78
2022/12/26 13:06:12;;;;;;;5.65;1.17;;;12.40;75.60;;;;;;4958013;29;20106;-78
2022/12/26 13:09:04;;;;;;;3.45;1.35;;;12.40;74.80;;;;;;4957398;29;20503;-79
2022/12/26 13:11:59;;;;;;;5.38;1.40;;;12.40;75.50;;;;;;4951507;29;20051;-79
2022/12/26 13:14:40;;;;;;;5.70;1.63;;;12.50;75.30;;;;;;4947762;29;20036;-78
2022/12/26 13:17:16;;;;;;;7.45;1.40;;;12.50;75.40;;;;;;4957366;29;20531;-78
2022/12/26 13:19:49;;;;;;;4.78;1.27;;;12.60;75.00;;;;;;4953747;29;20058;-78
2022/12/26 13:25:27;;;;;;;4.00;1.60;;;12.40;74.20;;;;;;4958822;29;20506;-79
2022/12/26 13:28:08;;;;;;;6.18;1.20;;;12.50;72.40;;;;;;4958416;29;20144;-79
2022/12/26 13:30:34;;;;;;;3.08;1.15;;;12.50;72.60;;;;;;4948118;29;20067;-78
2022/12/26 13:33:01;;;;;;;4.78;1.35;;;12.50;72.70;;;;;;4953386;29;20031;-78
2022/12/26 13:35:51;;;;;;;3.15;1.33;;;12.50;72.00;;;;;;4948334;29;20529;-79
2022/12/26 13:38:18;;;;;;;4.63;1.58;;;12.50;72.30;;;;;;4956806;29;20071;-79
2022/12/26 13:43:53;;;;;;;11.07;1.63;;;12.50;72.40;;;;;;4954959;29;20091;-79
2022/12/26 13:44:17;;;;;;;6.97;1.75;;;12.50;71.80;;;;;;4953003;29;20436;-78
2022/12/26 13:46:45;;;;;;;4.80;1.67;;;12.50;71.40;;;;;;4955377;29;20095;-78
2022/12/26 13:49:34;;;;;;;3.83;2.33;;;12.60;71.60;;;;;;4957038;29;20062;-79
2022/12/26 13:52:09;;;;;;;6.05;2.33;;;12.60;71.60;;;;;;4957052;29;20119;-79
2022/12/26 13:54:45;;;;;;;7.82;1.27;;;12.60;71.10;;;;;;4951603;29;20024;-79
2022/12/26 13:57:11;;;;;;;2.10;1.08;;;12.60;71.40;;;;;;4958088;29;20050;-78
2022/12/26 14:00:14;;;;;;;7.22;1.30;;;12.50;70.10;;;;;;4956061;29;20581;-78
2022/12/26 14:03:18;;;;;;;4.47;1.35;;;12.30;70.00;;;;;;4953690;29;20032;-78
2022/12/26 14:06:26;;;;;;;8.55;1.60;;;12.30;70.40;;;;;;4956561;29;20039;-78
2022/12/26 14:08:54;;;;;;;3.72;1.00;;;12.20;71.50;;;;;;4956064;29;20058;-78
2022/12/26 14:11:44;;;;;;;6.28;1.27;;;12.30;70.60;;;;;;4951422;29;20035;-78
2022/12/26 14:14:22;;;;;;;3.05;1.15;;;12.30;70.60;;;;;;4943365;29;20054;-78
2022/12/26 14:17:01;;;;;;;2.97;1.60;;;12.30;70.50;;;;;;4956189;29;20024;-78
2022/12/26 14:19:41;;;;;;;2.72;1.02;;;12.30;70.40;;;;;;4955161;29;20034;-78
2022/12/26 14:22:28;;;;;;;4.83;1.67;;;12.40;70.90;;;;;;4956365;29;20031;-78
2022/12/26 14:25:22;;;;;;;5.72;1.00;;;12.30;69.80;;;;;;4963254;28;20114;-78
2022/12/26 14:28:09;;;;;;;6.35;1.08;;;12.30;70.70;;;;;;4954110;29;20043;-78
2022/12/26 14:31:00;;;;;;;7.00;1.58;;;12.30;70.50;;;;;;4955849;29;20047;-78
2022/12/26 14:33:49;;;;;;;;;;;12.30;70.30;;;;;;4957790;29;20050;-79
2022/12/26 14:36:39;;;;;;;6.45;1.38;;;12.30;70.60;;;;;;4947916;29;19906;-79
2022/12/26 14:39:42;;;;;;;5.55;1.30;;;12.30;70.70;;;;;;4961266;28;20024;-79
2022/12/26 14:45:01;;;;;;;8.75;1.67;;;12.40;70.20;;;;;;4957140;29;20090;-78
2022/12/26 14:47:47;;;;;;;6.13;1.35;;;12.30;69.00;;;;;;4952608;29;20154;-78
2022/12/26 14:50:31;;;;;;;4.53;1.05;;;12.30;70.20;;;;;;4957050;29;20023;-78
2022/12/26 14:53:26;;;;;;;7.50;1.88;;;12.30;70.70;;;;;;4949435;29;20032;-78
2022/12/26 14:55:56;;;;;;;5.60;1.15;;;12.40;70.20;;;;;;4921366;29;20043;-78
2022/12/26 14:58:37;;;;;;;4.97;1.20;;;12.40;69.60;;;;;;4953796;29;20168;-78
2022/12/26 15:01:09;;;;;;;3.78;1.10;;;12.40;69.00;;;;;;4957212;29;20031;-78
2022/12/26 15:04:15;;;;;;;5.13;1.20;;;12.30;69.20;;;;;;4957159;29;20552;-80
2022/12/26 15:07:10;;;;;;;4.22;1.85;;;12.30;70.00;;;;;;4952538;29;20030;-79
2022/12/26 15:10:08;;;;;;;4.75;1.15;;;12.20;69.60;;;;;;4945049;29;20089;-79
2022/12/26 15:12:39;;;;;;;7.68;1.65;;;12.20;70.90;;;;;;4957150;29;20085;-78
2022/12/26 15:15:20;;;;;;;7.82;1.50;;;12.20;71.10;;;;;;4951669;29;20035;-79
2022/12/26 15:18:13;;;;;;;2.83;1.27;;;12.20;70.50;;;;;;4957145;29;20038;-79
2022/12/26 15:20:44;;;;;;;4.63;1.05;;;12.10;70.40;;;;;;4954314;29;20503;-79
2022/12/26 15:23:19;;;;;;;2.17;0.90;;;12.00;70.20;;;;;;4956923;29;20082;-79
2022/12/26 15:26:03;;;;;;;5.63;1.00;;;12.00;69.60;;;;;;4956214;29;20031;-79
2022/12/26 15:28:45;;;;;;;2.30;1.02;;;12.00;68.90;;;;;;4944471;29;20023;-79